Time,TemperatureF,DewpointF,PressureIn,WindDirection,WindDirectionDegrees,WindSpeedMPH,WindSpeedGustMPH,Humidity,HourlyPrecipIn,Conditions,Clouds,dailyrainin,SoftwareType,DateUTC
2013-07-03 00:02:00,74.0,63.0,30.04,SE,133,3.0,7.0,69,0.00,,,0.08,,2013-07-03 07:02:00,
2013-07-03 00:12:00,73.0,62.0,30.04,SE,134,1.0,5.0,69,0.00,,,0.08,,2013-07-03 07:12:00,
2013-07-03 00:34:00,73.0,62.0,30.04,SE,125,3.0,5.0,69,0.00,,,0.08,,2013-07-03 07:34:00,
2013-07-03 01:02:00,72.0,62.0,30.04,SE,138,3.0,5.0,70,0.00,,,0.08,,2013-07-03 08:02:00,
2013-07-03 01:12:00,72.0,62.0,30.04,SE,132,1.0,7.0,71,0.00,,,0.08,,2013-07-03 08:12:00,
2013-07-03 01:23:00,72.0,62.0,30.04,ESE,111,2.0,7.0,71,0.00,,,0.08,,2013-07-03 08:23:00,
2013-07-03 01:34:00,71.0,62.0,30.04,SE,142,2.0,3.0,72,0.00,,,0.08,,2013-07-03 08:34:00,
2013-07-03 01:52:00,71.0,62.0,30.03,SE,143,2.0,3.0,74,0.00,,,0.08,,2013-07-03 08:52:00,
2013-07-03 02:02:00,71.0,62.0,30.04,ESE,105,2.0,5.0,74,0.00,,,0.08,,2013-07-03 09:02:00,
2013-07-03 02:12:00,70.0,62.0,30.04,ESE,122,0.0,5.0,75,0.00,,,0.08,,2013-07-03 09:12:00,
2013-07-03 02:43:00,70.0,62.0,30.05,SE,134,1.0,3.0,76,0.00,,,0.08,,2013-07-03 09:43:00,
2013-07-03 02:53:00,69.0,61.0,30.05,SE,138,1.0,3.0,77,0.00,,,0.08,,2013-07-03 09:53:00,
2013-07-03 03:01:00,69.0,62.0,30.04,SE,144,1.0,2.0,78,0.00,,,0.08,,2013-07-03 10:01:00,
2013-07-03 03:22:00,69.0,62.0,30.04,SE,138,2.0,3.0,78,0.00,,,0.08,,2013-07-03 10:22:00,
2013-07-03 03:43:00,68.0,61.0,30.05,ESE,104,1.0,3.0,78,0.00,,,0.08,,2013-07-03 10:43:00,
2013-07-03 04:02:00,68.0,62.0,30.06,SSE,161,0.0,2.0,80,0.00,,,0.08,,2013-07-03 11:02:00,
2013-07-03 04:34:00,67.0,61.0,30.06,SE,143,1.0,3.0,80,0.00,,,0.08,,2013-07-03 11:34:00,
2013-07-03 04:42:00,67.0,61.0,30.06,SE,144,0.0,3.0,80,0.00,,,0.08,,2013-07-03 11:42:00,
2013-07-03 04:52:00,67.0,61.0,30.06,SE,144,0.0,2.0,81,0.00,,,0.08,,2013-07-03 11:52:00,
2013-07-03 05:02:00,66.0,60.0,30.06,SE,137,1.0,3.0,82,0.00,,,0.08,,2013-07-03 12:02:00,
2013-07-03 05:11:00,66.0,60.0,30.06,SE,137,0.0,1.0,82,0.00,,,0.08,,2013-07-03 12:11:00,
2013-07-03 05:22:00,67.0,61.0,30.06,SE,138,0.0,1.0,80,0.00,,,0.08,,2013-07-03 12:22:00,
2013-07-03 05:34:00,67.0,59.0,30.07,SE,138,0.0,0.0,76,0.00,,,0.08,,2013-07-03 12:34:00,
2013-07-03 05:43:00,67.0,60.0,30.07,SE,137,0.0,1.0,78,0.00,,,0.08,,2013-07-03 12:43:00,
2013-07-03 05:53:00,66.0,61.0,30.08,SE,137,0.0,0.0,83,0.00,,,0.08,,2013-07-03 12:53:00,
2013-07-03 06:02:00,65.0,60.0,30.08,SE,138,0.0,0.0,83,0.00,,,0.08,,2013-07-03 13:02:00,
2013-07-03 06:12:00,65.0,60.0,30.08,SE,138,0.0,0.0,83,0.00,,,0.08,,2013-07-03 13:12:00,
2013-07-03 06:33:00,65.0,60.0,30.08,SE,138,0.0,1.0,84,0.00,,,0.08,,2013-07-03 13:33:00,
2013-07-03 06:44:00,65.0,60.0,30.08,SE,138,0.0,1.0,84,0.00,,,0.08,,2013-07-03 13:44:00,
2013-07-03 06:53:00,65.0,59.0,30.09,SE,138,0.0,1.0,82,0.00,,,0.08,,2013-07-03 13:53:00,
2013-07-03 07:02:00,65.0,59.0,30.09,SE,138,0.0,1.0,80,0.00,,,0.08,,2013-07-03 14:02:00,
2013-07-03 07:43:00,68.0,60.0,30.09,SSE,164,0.0,1.0,75,0.00,,,0.08,,2013-07-03 14:43:00,
2013-07-03 07:53:00,69.0,60.0,30.09,SE,136,0.0,1.0,72,0.00,,,0.08,,2013-07-03 14:53:00,
2013-07-03 08:01:00,69.0,60.0,30.09,SE,136,0.0,0.0,73,0.00,,,0.08,,2013-07-03 15:01:00,
2013-07-03 08:12:00,69.0,59.0,30.09,SSE,163,0.0,3.0,70,0.00,,,0.08,,2013-07-03 15:12:00,
2013-07-03 08:22:00,70.0,57.0,30.09,South,174,1.0,3.0,63,0.00,,,0.08,,2013-07-03 15:22:00,
2013-07-03 08:34:00,71.0,57.0,30.09,South,180,1.0,3.0,61,0.00,,,0.08,,2013-07-03 15:34:00,
2013-07-03 08:45:00,71.0,57.0,30.10,SSW,206,1.0,3.0,61,0.00,,,0.08,,2013-07-03 15:45:00,
2013-07-03 08:53:00,72.0,56.0,30.10,SE,140,0.0,1.0,58,0.00,,,0.08,,2013-07-03 15:53:00,
2013-07-03 09:02:00,73.0,57.0,30.09,SSE,156,0.0,2.0,58,0.00,,,0.08,,2013-07-03 16:02:00,
2013-07-03 09:11:00,73.0,57.0,30.09,SSE,162,0.0,1.0,58,0.00,,,0.08,,2013-07-03 16:11:00,
2013-07-03 09:33:00,75.0,58.0,30.09,South,179,0.0,1.0,56,0.00,,,0.08,,2013-07-03 16:33:00,
2013-07-03 09:43:00,76.0,58.0,30.09,SE,140,0.0,1.0,54,0.00,,,0.08,,2013-07-03 16:43:00,
2013-07-03 09:53:00,77.0,58.0,30.08,SE,127,1.0,3.0,52,0.00,,,0.08,,2013-07-03 16:53:00,
2013-07-03 10:12:00,77.0,56.0,30.08,ESE,108,1.0,3.0,49,0.00,,,0.08,,2013-07-03 17:12:00,
2013-07-03 10:22:00,78.0,58.0,30.08,NNW,329,1.0,3.0,51,0.00,,,0.08,,2013-07-03 17:22:00,
2013-07-03 10:34:00,79.0,58.0,30.08,SE,139,2.0,3.0,49,0.00,,,0.08,,2013-07-03 17:34:00,
2013-07-03 10:44:00,80.0,59.0,30.07,South,188,1.0,5.0,48,0.00,,,0.08,,2013-07-03 17:44:00,
2013-07-03 10:52:00,80.0,58.0,30.07,SSE,155,0.0,2.0,47,0.00,,,0.08,,2013-07-03 17:52:00,
2013-07-03 11:02:00,80.0,59.0,30.07,SSE,157,0.0,5.0,49,0.00,,,0.08,,2013-07-03 18:02:00,
2013-07-03 11:33:00,83.0,60.0,30.07,SSE,164,1.0,5.0,46,0.00,,,0.08,,2013-07-03 18:33:00,
2013-07-03 11:43:00,83.0,59.0,30.07,ESE,114,1.0,3.0,44,0.00,,,0.08,,2013-07-03 18:43:00,
2013-07-03 11:53:00,83.0,59.0,30.06,South,169,1.0,2.0,45,0.00,,,0.08,,2013-07-03 18:53:00,
2013-07-03 12:02:00,85.0,59.0,30.06,South,181,1.0,3.0,42,0.00,,,0.08,,2013-07-03 19:02:00,
2013-07-03 12:12:00,86.0,60.0,30.06,South,186,0.0,3.0,42,0.00,,,0.08,,2013-07-03 19:12:00,
2013-07-03 12:24:00,87.0,60.0,30.06,SW,232,1.0,2.0,41,0.01,,,0.09,,2013-07-03 19:24:00,
2013-07-03 12:33:00,87.0,60.0,30.06,SSW,200,1.0,3.0,40,0.01,,,0.09,,2013-07-03 19:33:00,
2013-07-03 12:44:00,87.0,60.0,30.06,South,181,1.0,3.0,40,0.01,,,0.09,,2013-07-03 19:44:00,
2013-07-03 13:01:00,88.0,58.0,30.06,SSW,196,1.0,3.0,36,0.01,,,0.09,,2013-07-03 20:01:00,
2013-07-03 13:11:00,88.0,59.0,30.06,SSW,196,2.0,3.0,38,0.01,,,0.09,,2013-07-03 20:11:00,
2013-07-03 13:22:00,88.0,58.0,30.05,SE,142,1.0,3.0,36,0.00,,,0.09,,2013-07-03 20:22:00,
2013-07-03 13:34:00,90.0,59.0,30.05,South,170,1.0,5.0,35,0.00,,,0.09,,2013-07-03 20:34:00,
2013-07-03 13:43:00,91.0,59.0,30.04,SE,146,1.0,3.0,34,0.00,,,0.09,,2013-07-03 20:43:00,
2013-07-03 13:53:00,91.0,59.0,30.04,SSE,148,1.0,6.0,34,0.00,,,0.09,,2013-07-03 20:53:00,
2013-07-03 14:02:00,91.0,58.0,30.04,South,182,1.0,6.0,33,0.00,,,0.09,,2013-07-03 21:02:00,
2013-07-03 14:11:00,90.0,58.0,30.04,South,175,1.0,3.0,34,0.00,,,0.09,,2013-07-03 21:11:00,
2013-07-03 14:22:00,90.0,58.0,30.04,South,191,1.0,3.0,34,0.00,,,0.09,,2013-07-03 21:22:00,
2013-07-03 14:33:00,89.0,57.0,30.03,SSE,155,1.0,3.0,34,0.00,,,0.09,,2013-07-03 21:33:00,
2013-07-03 14:42:00,91.0,57.0,30.03,South,182,1.0,3.0,32,0.00,,,0.09,,2013-07-03 21:42:00,
2013-07-03 14:52:00,91.0,57.0,30.03,ENE,71,1.0,3.0,32,0.00,,,0.09,,2013-07-03 21:52:00,
2013-07-03 15:22:00,91.0,57.0,30.02,SE,129,1.0,3.0,32,0.00,,,0.09,,2013-07-03 22:22:00,
2013-07-03 15:33:00,93.0,56.0,30.01,South,183,2.0,3.0,29,0.00,,,0.09,,2013-07-03 22:33:00,
2013-07-03 15:43:00,93.0,55.0,30.01,South,188,1.0,3.0,28,0.00,,,0.09,,2013-07-03 22:43:00,
2013-07-03 15:53:00,92.0,54.0,30.01,South,180,2.0,5.0,28,0.00,,,0.09,,2013-07-03 22:53:00,
2013-07-03 16:02:00,90.0,54.0,30.01,South,178,1.0,5.0,30,0.00,,,0.09,,2013-07-03 23:02:00,
2013-07-03 16:11:00,94.0,56.0,30.00,SSE,164,2.0,3.0,28,0.00,,,0.08,,2013-07-03 23:11:00,
2013-07-03 16:21:00,91.0,52.0,30.00,SSW,193,1.0,3.0,27,0.00,,,0.08,,2013-07-03 23:21:00,
2013-07-03 16:52:00,91.0,51.0,29.99,South,177,2.0,5.0,26,0.00,,,0.08,,2013-07-03 23:52:00,
2013-07-03 17:02:00,91.0,52.0,29.99,South,183,2.0,3.0,27,0.00,,,0.08,,2013-07-04 00:02:00,
2013-07-03 17:11:00,91.0,51.0,29.98,South,188,2.0,6.0,26,0.00,,,0.08,,2013-07-04 00:11:00,
2013-07-03 17:33:00,90.0,52.0,29.98,SW,215,1.0,3.0,28,0.00,,,0.08,,2013-07-04 00:33:00,
2013-07-03 17:43:00,89.0,51.0,29.98,South,186,0.0,2.0,27,0.00,,,0.05,,2013-07-04 00:43:00,
2013-07-03 17:53:00,89.0,52.0,29.98,South,182,1.0,2.0,28,0.00,,,0.05,,2013-07-04 00:53:00,
2013-07-03 18:02:00,88.0,51.0,29.98,SSW,201,0.0,3.0,28,0.00,,,0.05,,2013-07-04 01:02:00,
2013-07-03 18:11:00,88.0,51.0,29.98,South,189,1.0,3.0,28,0.00,,,0.05,,2013-07-04 01:11:00,
2013-07-03 18:33:00,87.0,50.0,29.98,South,185,1.0,2.0,28,0.00,,,0.05,,2013-07-04 01:33:00,
2013-07-03 18:43:00,88.0,50.0,29.98,South,186,1.0,2.0,27,0.00,,,0.05,,2013-07-04 01:43:00,
2013-07-03 18:52:00,87.0,50.0,29.98,South,189,1.0,2.0,28,0.00,,,0.05,,2013-07-04 01:52:00,
2013-07-03 19:02:00,87.0,50.0,29.98,South,184,1.0,2.0,28,0.00,,,0.04,,2013-07-04 02:02:00,
2013-07-03 19:22:00,87.0,50.0,29.99,South,180,1.0,2.0,28,0.00,,,0.04,,2013-07-04 02:22:00,
2013-07-03 19:34:00,87.0,50.0,29.99,South,180,1.0,1.0,28,0.00,,,0.04,,2013-07-04 02:34:00,
2013-07-03 19:44:00,87.0,58.0,29.99,South,180,1.0,3.0,38,0.00,,,0.04,,2013-07-04 02:44:00,
2013-07-03 19:52:00,86.0,58.0,29.99,SSE,161,1.0,2.0,39,0.00,,,0.04,,2013-07-04 02:52:00,
2013-07-03 20:02:00,87.0,59.0,30.00,SSE,155,0.0,2.0,39,0.00,,,0.04,,2013-07-04 03:02:00,
2013-07-03 20:11:00,87.0,58.0,30.00,South,184,0.0,2.0,38,0.00,,,0.04,,2013-07-04 03:11:00,
2013-07-03 20:23:00,86.0,58.0,30.00,South,183,1.0,2.0,39,0.00,,,0.04,,2013-07-04 03:23:00,
2013-07-03 20:33:00,85.0,58.0,30.00,SSE,168,0.0,2.0,40,0.00,,,0.04,,2013-07-04 03:33:00,
2013-07-03 20:43:00,83.0,57.0,30.00,South,169,0.0,2.0,41,0.00,,,0.04,,2013-07-04 03:43:00,
2013-07-03 20:53:00,81.0,56.0,30.01,SSE,167,0.0,2.0,43,0.00,,,0.03,,2013-07-04 03:53:00,
2013-07-03 21:01:00,80.0,55.0,30.01,SSE,159,0.0,1.0,43,0.00,,,0.02,,2013-07-04 04:01:00,
2013-07-03 21:11:00,79.0,56.0,30.01,SSE,159,0.0,0.0,45,0.00,,,0.02,,2013-07-04 04:11:00,
2013-07-03 21:22:00,78.0,57.0,30.02,SSE,147,2.0,5.0,48,0.00,,,0.01,,2013-07-04 04:22:00,
2013-07-03 21:33:00,76.0,56.0,30.02,ESE,119,3.0,9.0,50,0.00,,,0.01,,2013-07-04 04:33:00,
2013-07-03 21:43:00,75.0,56.0,30.03,ESE,123,2.0,10.0,51,0.00,,,0.01,,2013-07-04 04:43:00,
2013-07-03 21:52:00,74.0,55.0,30.04,SE,139,2.0,10.0,52,0.00,,,0.01,,2013-07-04 04:52:00,
2013-07-03 22:01:00,73.0,55.0,30.04,SE,126,3.0,9.0,53,0.00,,,0.01,,2013-07-04 05:01:00,
2013-07-03 22:12:00,72.0,54.0,30.04,SE,126,2.0,9.0,54,0.00,,,0.01,,2013-07-04 05:12:00,
2013-07-03 22:21:00,72.0,55.0,30.05,SE,140,3.0,9.0,55,0.00,,,0.01,,2013-07-04 05:21:00,
2013-07-03 22:32:00,71.0,54.0,30.05,SE,125,2.0,6.0,55,0.00,,,0.01,,2013-07-04 05:32:00,
2013-07-03 22:42:00,70.0,54.0,30.06,ESE,123,3.0,8.0,56,0.00,,,0.01,,2013-07-04 05:42:00,
2013-07-03 22:52:00,70.0,54.0,30.06,ESE,119,4.0,9.0,56,0.00,,,0.01,,2013-07-04 05:52:00,
2013-07-03 23:01:00,70.0,54.0,30.06,ESE,123,3.0,10.0,56,0.00,,,0.01,,2013-07-04 06:01:00,
2013-07-03 23:11:00,69.0,53.0,30.06,SE,138,2.0,3.0,57,0.00,,,0.01,,2013-07-04 06:11:00,
2013-07-03 23:22:00,69.0,54.0,30.06,ESE,113,1.0,5.0,58,0.00,,,0.01,,2013-07-04 06:22:00,
2013-07-03 23:33:00,68.0,53.0,30.06,ESE,106,1.0,7.0,58,0.00,,,0.01,,2013-07-04 06:33:00,
2013-07-03 23:42:00,68.0,53.0,30.06,East,100,2.0,7.0,58,0.00,,,0.01,,2013-07-04 06:42:00,
2013-07-03 23:52:00,68.0,53.0,30.06,SE,136,2.0,5.0,58,0.00,,,0.01,,2013-07-04 06:52:00,